TimeEST,TemperatureF,Dew PointF,Humidity,Sea Level PressureIn,VisibilityMPH,Wind Direction,Wind SpeedMPH,Gust SpeedMPH,PrecipitationIn,Events,Conditions,WindDirDegrees,DateUTC
12:15 AM,12.4,9.3,88,30.14,10.0,Calm,Calm,-,N/A,,Overcast,0,2014-01-23 05:15:00
12:35 AM,12.7,10.0,89,30.14,10.0,Calm,Calm,-,N/A,,Mostly Cloudy,0,2014-01-23 05:35:00
12:55 AM,12.9,9.5,86,30.14,10.0,Calm,Calm,-,N/A,,Overcast,0,2014-01-23 05:55:00
1:15 AM,13.5,10.0,86,30.13,10.0,Calm,Calm,-,N/A,,Overcast,0,2014-01-23 06:15:00
1:35 AM,13.1,9.3,85,30.13,10.0,Calm,Calm,-,N/A,,Mostly Cloudy,0,2014-01-23 06:35:00
1:55 AM,13.5,10.2,87,30.14,10.0,Calm,Calm,-,N/A,,Mostly Cloudy,0,2014-01-23 06:55:00
2:15 AM,13.5,10.4,88,30.15,10.0,Calm,Calm,-,N/A,,Overcast,0,2014-01-23 07:15:00
2:35 AM,13.8,10.4,86,30.16,10.0,Calm,Calm,-,N/A,,Overcast,0,2014-01-23 07:35:00
2:55 AM,13.1,9.7,86,30.16,10.0,Calm,Calm,-,N/A,,Scattered Clouds,0,2014-01-23 07:55:00
3:15 AM,12.2,8.8,86,30.17,10.0,Calm,Calm,-,N/A,,Clear,0,2014-01-23 08:15:00
3:35 AM,11.5,9.0,90,30.17,10.0,Calm,Calm,-,N/A,,Clear,0,2014-01-23 08:35:00
3:55 AM,11.3,8.6,89,30.18,10.0,Calm,Calm,-,N/A,,Clear,0,2014-01-23 08:55:00
4:15 AM,10.6,7.7,88,30.19,10.0,Calm,Calm,-,N/A,,Clear,0,2014-01-23 09:15:00
4:35 AM,10.0,8.1,92,30.19,10.0,Calm,Calm,-,N/A,,Clear,0,2014-01-23 09:35:00
4:55 AM,10.4,8.4,92,30.19,10.0,Calm,Calm,-,N/A,,Clear,0,2014-01-23 09:55:00
5:15 AM,9.9,7.7,91,30.20,10.0,Calm,Calm,-,N/A,,Clear,0,2014-01-23 10:15:00
5:35 AM,9.9,7.7,91,30.21,10.0,Calm,Calm,-,N/A,,Clear,0,2014-01-23 10:35:00
5:55 AM,9.5,7.7,92,30.22,10.0,Calm,Calm,-,N/A,,Clear,0,2014-01-23 10:55:00
6:15 AM,9.5,7.5,92,30.22,10.0,Calm,Calm,-,N/A,,Clear,0,2014-01-23 11:15:00
6:35 AM,9.5,7.5,92,30.22,10.0,Calm,Calm,-,N/A,,Clear,0,2014-01-23 11:35:00
6:55 AM,9.7,7.0,89,30.22,10.0,Calm,Calm,-,N/A,,Clear,0,2014-01-23 11:55:00
7:15 AM,8.8,6.4,90,30.23,10.0,Calm,Calm,-,N/A,,Clear,0,2014-01-23 12:15:00
7:35 AM,10.0,7.9,91,30.24,10.0,Calm,Calm,-,N/A,,Clear,0,2014-01-23 12:35:00
7:55 AM,10.8,8.4,90,30.24,10.0,Calm,Calm,-,N/A,,Clear,0,2014-01-23 12:55:00
8:15 AM,12.2,9.3,88,30.25,10.0,Calm,Calm,-,N/A,,Clear,0,2014-01-23 13:15:00
8:35 AM,15.3,11.8,86,30.26,10.0,Calm,Calm,-,N/A,,Clear,0,2014-01-23 13:35:00
8:55 AM,18.3,13.8,83,30.28,10.0,Calm,Calm,-,N/A,,Clear,0,2014-01-23 13:55:00
9:15 AM,22.5,13.3,68,30.28,10.0,Calm,Calm,-,N/A,,Clear,0,2014-01-23 14:15:00
9:35 AM,25.5,9.9,52,30.28,10.0,Calm,Calm,-,N/A,,Clear,0,2014-01-23 14:35:00
9:55 AM,26.6,8.6,47,30.30,10.0,Calm,Calm,-,N/A,,Clear,0,2014-01-23 14:55:00
10:15 AM,27.9,8.1,43,30.30,10.0,West,3.5,-,N/A,,Clear,260,2014-01-23 15:15:00
10:55 AM,29.8,8.8,41,30.30,10.0,Calm,Calm,-,N/A,,Clear,0,2014-01-23 15:55:00
11:15 AM,30.9,10.8,43,30.29,10.0,Calm,Calm,-,N/A,,Clear,0,2014-01-23 16:15:00
11:35 AM,31.5,10.9,43,30.28,10.0,South,3.5,-,N/A,,Clear,190,2014-01-23 16:35:00
11:55 AM,32.0,11.7,43,30.27,10.0,Calm,Calm,-,N/A,,Clear,0,2014-01-23 16:55:00
12:15 PM,32.2,9.1,38,30.25,10.0,Calm,Calm,-,N/A,,Clear,0,2014-01-23 17:15:00
12:35 PM,32.2,10.8,41,30.25,10.0,SSW,3.5,-,N/A,,Clear,210,2014-01-23 17:35:00
12:55 PM,32.9,11.5,41,30.24,10.0,Calm,Calm,-,N/A,,Clear,0,2014-01-23 17:55:00
1:15 PM,32.4,10.2,40,30.24,10.0,West,3.5,-,N/A,,Clear,280,2014-01-23 18:15:00
1:35 PM,33.4,13.6,44,30.23,10.0,Calm,Calm,-,N/A,,Clear,0,2014-01-23 18:35:00
1:55 PM,34.5,13.3,42,30.23,10.0,West,4.6,-,N/A,,Clear,260,2014-01-23 18:55:00
2:15 PM,34.3,14.7,45,30.22,10.0,Calm,Calm,-,N/A,,Clear,0,2014-01-23 19:15:00
2:35 PM,33.8,11.1,39,30.22,10.0,Calm,Calm,-,N/A,,Clear,0,2014-01-23 19:35:00
2:55 PM,34.7,12.0,39,30.23,10.0,Calm,Calm,-,N/A,,Clear,0,2014-01-23 19:55:00
3:15 PM,34.7,11.8,39,30.24,10.0,Calm,Calm,-,N/A,,Clear,0,2014-01-23 20:15:00
3:35 PM,34.9,9.9,35,30.25,10.0,NW,5.8,-,N/A,,Clear,320,2014-01-23 20:35:00
3:55 PM,33.8,8.8,35,30.26,10.0,Calm,Calm,-,N/A,,Clear,0,2014-01-23 20:55:00
4:15 PM,33.6,9.3,36,30.26,10.0,Calm,Calm,-,N/A,,Clear,0,2014-01-23 21:15:00
4:35 PM,33.1,9.1,37,30.27,10.0,Calm,Calm,-,N/A,,Clear,0,2014-01-23 21:35:00
4:55 PM,32.5,9.0,37,30.28,10.0,Calm,Calm,-,N/A,,Clear,0,2014-01-23 21:55:00
5:15 PM,32.0,9.5,39,30.29,10.0,Calm,Calm,-,N/A,,Clear,0,2014-01-23 22:15:00
5:35 PM,31.1,9.3,40,30.29,10.0,Calm,Calm,-,N/A,,Clear,0,2014-01-23 22:35:00
5:55 PM,30.6,10.9,44,30.30,10.0,Calm,Calm,-,N/A,,Clear,0,2014-01-23 22:55:00
6:15 PM,30.7,10.6,43,30.31,10.0,Calm,Calm,-,N/A,,Clear,0,2014-01-23 23:15:00
6:35 PM,30.7,12.0,46,30.32,10.0,Calm,Calm,-,N/A,,Clear,0,2014-01-23 23:35:00
6:55 PM,30.7,12.0,46,30.32,10.0,Calm,Calm,-,N/A,,Clear,0,2014-01-23 23:55:00
7:15 PM,30.0,12.0,47,30.33,10.0,Calm,Calm,-,N/A,,Clear,0,2014-01-24 00:15:00
7:35 PM,29.1,12.0,49,30.34,10.0,Calm,Calm,-,N/A,,Clear,0,2014-01-24 00:35:00
7:55 PM,29.8,10.9,45,30.35,10.0,NNW,9.2,16.1,N/A,,Clear,340,2014-01-24 00:55:00
8:15 PM,29.3,8.8,42,30.36,10.0,NNW,5.8,-,N/A,,Clear,340,2014-01-24 01:15:00
8:35 PM,28.6,9.1,44,30.37,10.0,NNW,9.2,-,N/A,,Clear,340,2014-01-24 01:35:00
8:55 PM,27.9,4.3,37,30.38,10.0,NNW,4.6,-,N/A,,Clear,330,2014-01-24 01:55:00
9:15 PM,27.3,3.2,36,30.39,10.0,NNW,5.8,-,N/A,,Clear,340,2014-01-24 02:15:00
9:35 PM,26.8,3.4,37,30.40,10.0,NNW,4.6,-,N/A,,Clear,340,2014-01-24 02:35:00
9:55 PM,25.9,1.8,35,30.41,10.0,NNW,5.8,-,N/A,,Clear,340,2014-01-24 02:55:00
10:15 PM,25.2,0.3,34,30.41,10.0,North,8.1,17.3,N/A,,Clear,350,2014-01-24 03:15:00
10:35 PM,24.6,0.5,35,30.41,10.0,North,4.6,-,N/A,,Clear,350,2014-01-24 03:35:00
10:55 PM,24.1,1.2,37,30.42,10.0,NNW,4.6,-,N/A,,Clear,330,2014-01-24 03:55:00
11:15 PM,23.7,-0.4,35,30.43,10.0,NNW,9.2,20.7,N/A,,Clear,340,2014-01-24 04:15:00
11:35 PM,23.0,-1.3,35,30.43,10.0,NNW,8.1,-,N/A,,Clear,340,2014-01-24 04:35:00
11:55 PM,22.8,-0.4,36,30.44,10.0,NNW,5.8,-,N/A,,Clear,340,2014-01-24 04:55:00